x

West Moresby (46208) Wave Buoy

9:00pm - Tue 21st Feb 2017 All times are PST. -8 hours from GMT.

  • Sig Wave height 5.9ft
  • Peak Period 11s
  • Wind
    20mph, 22mph gusts
  • Sea Temp 45°f
  • Air Temp 40°f
  • Sea Pressure 1020.1mb
  • West Moresby
  • West Moresby

More Historic Weather Station data

Upgrade to MSW Pro to gain access to the past 30 days of data for over 8000 Wavebouys and Weather Stations around the globe.

Join Pro

Comparision Forecast

View Surf forecast
   
Tue 02/21 9:00pm 6ft 11s 20 22 mph 1020.1mb 45f 40f
8:00pm 6ft 11s 9 13 mph 1020.1mb 45f 36f
7:00pm 6ft 10s 22 27 mph 1019.6mb 45f 37f
5:00pm 5ft 11s 18 22 mph 1018.5mb 44f 39f
4:00pm 5.5ft 11s 18 22 mph 1017.9mb 45f 39f
3:00pm 5ft 16s 20 22 mph 1017.3mb 45f 40f
2:00pm 5ft 11s 18 22 mph 1016.7mb 45f 41f
1:00pm 5ft 11s 18 22 mph 1016.1mb 46f 41f
12:00pm 5ft 11s 13 18 mph 1015.6mb 46f 41f
11:00am 5ft 11s 9 11 mph 1015.1mb 46f 40f
10:00am 5ft 11s 22 27 mph 1014.2mb 46f 38f
9:00am 5ft 11s 9 11 mph 1013.2mb 46f 41f
8:00am 5ft 12s 11 16 mph 1012.5mb 45f 40f
7:00am  -   -  16
mph
- - -
6:00am 6ft 11s 16 20 mph 1011.5mb 46f 40f
5:00am 6.5ft 11s 20 22 mph 1010.8mb 46f 41f
4:00am 6.5ft 10s 20 25 mph 1010.1mb 45f 42f
3:00am 6.5ft 11s 20 25 mph 1009.6mb 46f 42f
2:00am 7ft 12s 22 27 mph 1009mb 46f 42f
1:00am 6.5ft 10s 20 25 mph 1008.6mb 46f 42f
12:00am 7ft 11s 20 25 mph 1008mb 46f 41f
Mon 02/20 11:00pm 7ft 11s 22 27 mph 1007.3mb 46f 42f
10:00pm 7ft 12s 20 25 mph 1007mb 46f 42f
9:00pm 7ft 12s 22 27 mph 1006.1mb 46f 42f
8:00pm 6.5ft 12s 22 27 mph 1005.8mb 46f 42f
7:00pm 6.5ft 11s 20 25 mph 1005.3mb 46f 42f
6:00pm 6ft 12s 20 25 mph 1004.8mb 46f 42f
5:00pm 6ft 12s 20 25 mph 1004.3mb 46f 42f
4:00pm 5.5ft 12s 18 20 mph 1003.9mb 46f 43f
3:00pm 6ft 12s 16 22 mph 1003.4mb 46f 43f
2:00pm 6ft 11s 13 18 mph 1002.9mb 46f 43f
1:00pm 6ft 13s 9 11 mph 1002.6mb 46f 43f
12:00pm 6ft 12s 9 13 mph 1002.2mb 46f 43f
11:00am 6ft 13s 11 16 mph 1001.7mb 46f 42f
10:00am 6.5ft 12s 11 16 mph 1001.1mb 46f 42f
9:00am 7.5ft 13s 11 13 mph 1000.6mb 45f 42f
8:00am 6ft 14s 11 13 mph 1000mb 46f 42f
7:00am 7ft 13s 11 13 mph 999.4mb 46f 41f
6:00am 6.5ft 12s 7 9 mph 999.4mb 45f 41f
5:00am 7ft 13s 7 11 mph 999.2mb 45f 40f
4:00am 7ft 14s 9 13 mph 999.3mb 46f 41f
3:00am 7ft 14s 13 16 mph 999.1mb 46f 41f
2:00am 7.5ft 14s 11 13 mph 999.1mb 46f 42f
1:00am 7ft 14s 7 9 mph 998.9mb 46f 43f
12:00am 6.5ft 13s 7 9 mph 998.7mb 46f 43f
Sun 02/19 11:00pm 8ft 14s 2 4 mph 998.6mb 46f 43f
10:00pm 7ft 15s 4 9 mph 998.5mb 46f 43f
9:00pm 6ft 15s 7 9 mph 998.1mb 46f 43f
8:00pm 7.5ft 14s 4 9 mph 998mb 46f 42f
7:00pm 8ft 15s 4 9 mph 997.8mb 46f 42f
6:00pm 7ft 14s 7 9 mph 997.7mb 46f 42f
5:00pm 7ft 16s 4 7 mph 997.3mb 46f 42f
4:00pm 6.5ft 16s 4 7 mph 997.1mb 46f 43f
3:00pm 6.5ft 15s 4 7 mph 997mb 46f 43f
2:00pm 6.5ft 16s 7 9 mph 997mb 46f 42f
1:00pm 6.5ft 16s 7 9 mph 996.9mb 46f 42f
12:00pm 5.5ft 17s 4 7 mph 997mb 46f 42f
11:00am 6ft 17s 7 11 mph 996.8mb 46f 42f
10:00am 5ft 17s 4 7 mph 996.6mb 46f 42f
9:00am 5ft 18s 4 9 mph 996.2mb 45f 41f
8:00am 4.5ft 18s 4 9 mph 996mb 45f 40f
7:00am 5ft 20s 7 11 mph 995.8mb 45f 40f
6:00am 5ft 10s 7 9 mph 995.9mb 45f 40f
5:00am 5ft 10s 7 11 mph 995.8mb 45f 40f
4:00am 5ft 11s 9 11 mph 995.9mb 45f 40f
3:00am 5ft 10s 9 13 mph 996.1mb 45f 40f
2:00am 5ft 10s 7 11 mph 996.1mb 45f 40f
1:00am 5ft 11s 9 11 mph 996.3mb 45f 40f
12:00am 6ft 10s 4 9 mph 996.3mb 45f 40f
Sat 02/18 11:00pm 5.5ft 10s 7 11 mph 996.3mb 46f 40f
10:00pm 5.5ft 10s 9 11 mph 996.3mb 46f 40f
9:00pm 6ft 10s 11 13 mph 996.1mb 46f 41f
8:00pm 5.5ft 10s 13 18 mph 995.9mb 46f 42f
7:00pm 6ft 10s 18 22 mph 995.7mb 46f 42f
6:00pm 6ft 10s 16 18 mph 995.9mb 46f 42f
5:00pm 6ft 11s 16 18 mph 996.2mb 46f 42f
4:00pm 6ft 10s 13 18 mph 996.8mb 46f 42f
3:00pm 6.5ft 11s 13 16 mph 997.1mb 46f 42f
2:00pm 6.5ft 10s 13 18 mph 997.7mb 46f 41f
1:00pm 6.5ft 12s 16 20 mph 998.4mb 46f 42f
12:00pm 7ft 11s 9 13 mph 999.3mb 46f 41f
11:00am 7ft 11s 4 9 mph 999.9mb 46f 42f
10:00am 7.5ft 10s 4 9 mph 1000.4mb 46f 42f
9:00am 7ft 11s 7 9 mph 1000.9mb 45f 41f
8:00am 7ft 11s 9 13 mph 1001.3mb 45f 41f
7:00am 7ft 11s 11 13 mph 1001.9mb 45f 41f